OMRK/RKT METAR and TAF weather

Enter ICAO airport designator
Station Type Date Time Source
OMRK METAR 2022/07/01 02:00 UTC NOAA

OMRK 010200Z 20002KT 170V230 CAVOK 28/21 Q0994 A2938


Station Type Date Time Source
OMRK Decoded METAR 2022/07/01 02:00 UTC NOAA

Ras Al Khaimah International Airport, United Arab Emirates (OMRK) 25-37N 055-56E 31M
Jun 30, 2022 - 10:00 PM EDT / 2022.07.01 0200 UTC
Wind: from the SSW (200 degrees) at 2 MPH (2 KT) (direction variable):0
Visibility: greater than 7 mile(s):0
Temperature: 82 F (28 C)
Dew Point: 69 F (21 C)
Relative Humidity: 65%
Pressure (altimeter): 29.38 in. Hg (994 hPa)
ob: OMRK 010200Z 20002KT 170V230 CAVOK 28/21 Q0994 A2938
cycle: 2

Station Type Date Time Source
OMRK TAF 2022/06/30 18:54 UTC NOAA

TAF OMRK 301700Z 3018/0200 VRB02KT 8000 NSC
BECMG 0104/0106 10012KT
BECMG 0109/0111 35010KT
BECMG 0114/0116 10005KT

Example: see airport list